Time;durP1;ratioP1;P1;durP2;ratioP2;P2;SDS_P1;SDS_P2;PMS_P1;PMS_P2;Temp;Humidity;BMP_temperature;BMP_pressure;BME280_temperature;BME280_humidity;BME280_pressure;Samples;Min_cycle;Max_cycle;Signal;HPM_P1;HPM_P2
2022/01/21 00:00:29;;;;;;;;;;;20.50;38.30;;;;;;6327876;27;19996;-44
2022/01/21 00:03:31;;;;;;;;;;;21.10;38.40;;;;;;6328220;27;19932;-42
2022/01/21 00:06:33;;;;;;;;;;;20.70;38.50;;;;;;6324937;28;20042;-42
2022/01/21 00:09:35;;;;;;;;;;;20.60;38.40;;;;;;6329723;28;19932;-43
2022/01/21 00:12:36;;;;;;;;;;;20.70;38.30;;;;;;6328865;28;19927;-45
2022/01/21 00:15:38;;;;;;;;;;;20.50;38.30;;;;;;6325723;27;19931;-44
2022/01/21 00:18:42;;;;;;;;;;;20.40;38.30;;;;;;6328505;27;20058;-43
2022/01/21 00:31:27;;;;;;;;;;;20.90;38.40;;;;;;6324933;27;19932;-45
2022/01/21 00:34:28;;;;;;;;;;;20.90;38.50;;;;;;6325775;28;20012;-46
2022/01/21 00:37:30;;;;;;;;;;;20.50;38.40;;;;;;6328455;27;20822;-44
2022/01/21 00:40:33;;;;;;;;;;;20.80;38.50;;;;;;6333575;28;19992;-42
2022/01/21 00:43:43;;;;;;;;;;;20.60;38.40;;;;;;6333736;28;19931;-43
2022/01/21 00:46:45;;;;;;;;;;;20.60;38.40;;;;;;6314767;28;19923;-44
2022/01/21 00:49:46;;;;;;;;;;;21.00;38.80;;;;;;6333531;28;19943;-45
2022/01/21 00:52:48;;;;;;;;;;;20.60;38.30;;;;;;6311480;28;19932;-46
2022/01/21 00:55:50;;;;;;;;;;;20.80;38.40;;;;;;6329514;28;20031;-43
2022/01/21 00:58:53;;;;;;;;;;;20.90;38.60;;;;;;6317258;27;19934;-43
2022/01/21 01:01:57;;;;;;;;;;;20.40;38.50;;;;;;6327183;27;19973;-45
2022/01/21 01:04:58;;;;;;;;;;;20.60;38.40;;;;;;6337490;28;19932;-43
2022/01/21 01:08:02;;;;;;;;;;;20.60;38.40;;;;;;6333453;27;19938;-41
2022/01/21 01:20:47;;;;;;;;;;;20.40;38.30;;;;;;6332034;28;19958;-41
2022/01/21 01:24:02;;;;;;;;;;;20.50;38.50;;;;;;6337428;28;19970;-46
2022/01/21 01:30:18;;;;;;;;;;;20.40;38.30;;;;;;6334476;27;19931;-41
2022/01/21 01:33:24;;;;;;;;;;;20.60;38.30;;;;;;6336972;28;19966;-41
2022/01/21 01:36:25;;;;;;;;;;;20.80;38.50;;;;;;6333308;28;19927;-43
2022/01/21 01:39:33;;;;;;;;;;;20.40;38.30;;;;;;6331044;27;19935;-41
2022/01/21 01:42:57;;;;;;;;;;;20.30;38.20;;;;;;6331482;28;19930;-41
2022/01/21 01:52:27;;;;;;;;;;;20.80;38.40;;;;;;6329524;28;19928;-41
2022/01/21 01:55:29;;;;;;;;;;;20.40;38.40;;;;;;6330058;28;19932;-42
2022/01/21 01:58:33;;;;;;;;;;;20.90;38.50;;;;;;6326004;27;19939;-40
2022/01/21 02:01:35;;;;;;;;;;;20.40;38.30;;;;;;6334137;28;19931;-41
2022/01/21 02:04:37;;;;;;;;;;;20.60;38.60;;;;;;6335365;27;19931;-42
2022/01/21 02:07:39;;;;;;;;;;;20.80;38.50;;;;;;6332967;28;20561;-40
2022/01/21 02:10:41;;;;;;;;;;;20.30;38.60;;;;;;6335923;28;19927;-45
2022/01/21 02:13:46;;;;;;;;;;;20.60;38.40;;;;;;6336103;27;19972;-43
2022/01/21 02:23:21;;;;;;;;;;;20.60;38.40;;;;;;6301166;28;20772;-43
2022/01/21 02:26:23;;;;;;;;;;;20.40;38.40;;;;;;6334057;27;19992;-42
2022/01/21 02:29:29;;;;;;;;;;;20.90;38.30;;;;;;6334252;28;19927;-41
2022/01/21 02:32:32;;;;;;;;;;;20.30;38.30;;;;;;6333800;27;19975;-44
2022/01/21 02:35:34;;;;;;;;;;;20.70;38.60;;;;;;6330982;27;19958;-43
2022/01/21 02:38:36;;;;;;;;;;;20.90;38.50;;;;;;6333391;28;19939;-43
2022/01/21 02:41:37;;;;;;;;;;;20.50;38.40;;;;;;6331136;28;19938;-45
2022/01/21 02:44:39;;;;;;;;;;;20.80;38.50;;;;;;6332225;28;19932;-42
2022/01/21 02:47:41;;;;;;;;;;;20.10;38.30;;;;;;6314952;28;19963;-42
2022/01/21 02:50:42;;;;;;;;;;;20.80;38.50;;;;;;6334501;27;19974;-41
2022/01/21 02:56:57;;;;;;;;;;;20.30;38.30;;;;;;6315703;28;19931;-46
2022/01/21 02:59:58;;;;;;;;;;;20.40;38.10;;;;;;6317767;28;20029;-46
2022/01/21 03:03:02;;;;;;;;;;;20.40;38.50;;;;;;6326150;27;19942;-40
2022/01/21 03:06:04;;;;;;;;;;;20.50;38.30;;;;;;6320572;27;19927;-41
2022/01/21 03:09:07;;;;;;;;;;;20.30;37.50;;;;;;6321825;28;19934;-39
2022/01/21 03:12:09;;;;;;;;;;;20.10;38.30;;;;;;6325720;28;20031;-41
2022/01/21 03:15:10;;;;;;;;;;;20.00;38.10;;;;;;6306663;28;19939;-40
2022/01/21 03:18:12;;;;;;;;;;;19.90;38.20;;;;;;6327449;28;19970;-41
2022/01/21 03:21:16;;;;;;;;;;;20.70;38.70;;;;;;6320919;28;20431;-40
2022/01/21 03:24:18;;;;;;;;;;;20.10;38.20;;;;;;6323734;27;19927;-41
2022/01/21 03:27:20;;;;;;;;;;;20.30;38.40;;;;;;6328274;28;20067;-41
2022/01/21 03:30:21;;;;;;;;;;;21.00;38.80;;;;;;6334471;28;19946;-41
2022/01/21 03:33:30;;;;;;;;;;;20.50;38.60;;;;;;6327945;28;19931;-41
2022/01/21 03:36:32;;;;;;;;;;;20.20;38.40;;;;;;6324755;27;20115;-39
2022/01/21 03:39:34;;;;;;;;;;;20.40;38.40;;;;;;6326052;28;19942;-40
2022/01/21 03:42:36;;;;;;;;;;;20.40;38.40;;;;;;6331591;28;19934;-41
2022/01/21 03:45:38;;;;;;;;;;;20.10;38.30;;;;;;6333006;27;19931;-42
2022/01/21 03:48:40;;;;;;;;;;;20.20;38.40;;;;;;6336230;28;19963;-41
2022/01/21 03:51:41;;;;;;;;;;;20.50;38.50;;;;;;6336279;28;19979;-41
2022/01/21 03:54:43;;;;;;;;;;;20.30;38.50;;;;;;6325760;28;19979;-41
2022/01/21 03:57:45;;;;;;;;;;;20.10;38.40;;;;;;6323469;28;20332;-41
2022/01/21 04:00:48;;;;;;;;;;;20.60;38.50;;;;;;6323021;28;20327;-40
2022/01/21 04:03:49;;;;;;;;;;;20.10;38.20;;;;;;6320884;27;20269;-40
2022/01/21 04:06:51;;;;;;;;;;;20.10;38.40;;;;;;6329575;28;19971;-40
2022/01/21 04:09:54;;;;;;;;;;;20.20;38.30;;;;;;6329971;27;19927;-41
2022/01/21 04:12:56;;;;;;;;;;;20.10;38.30;;;;;;6330341;28;20450;-41
2022/01/21 04:15:58;;;;;;;;;;;20.50;38.50;;;;;;6307670;28;20038;-42
2022/01/21 04:19:00;;;;;;;;;;;20.20;38.30;;;;;;6319784;28;20465;-41
2022/01/21 04:22:01;;;;;;;;;;;20.30;38.60;;;;;;6341818;28;19928;-43
2022/01/21 04:25:05;;;;;;;;;;;20.10;38.50;;;;;;6328160;28;19939;-40
2022/01/21 04:28:07;;;;;;;;;;;20.30;38.40;;;;;;6307902;28;19934;-40
2022/01/21 04:31:08;;;;;;;;;;;20.50;38.60;;;;;;6316365;28;19934;-43
2022/01/21 04:34:16;;;;;;;;;;;20.00;38.40;;;;;;6337802;28;19964;-43
2022/01/21 04:37:18;;;;;;;;;;;20.10;38.40;;;;;;6337230;28;19935;-41
2022/01/21 04:40:31;;;;;;;;;;;20.20;38.50;;;;;;6327187;27;19950;-41
2022/01/21 04:50:10;;;;;;;;;;;20.20;38.50;;;;;;6321991;28;20066;-41
2022/01/21 04:53:14;;;;;;;;;;;20.10;38.40;;;;;;6323377;27;20311;-41
2022/01/21 04:56:21;;;;;;;;;;;20.20;38.60;;;;;;6318055;27;20020;-41
2022/01/21 04:59:23;;;;;;;;;;;20.20;38.50;;;;;;6311884;27;20570;-41
2022/01/21 05:02:26;;;;;;;;;;;20.50;38.60;;;;;;6312694;28;20125;-41
2022/01/21 05:05:28;;;;;;;;;;;20.40;38.60;;;;;;6300151;28;19974;-40
2022/01/21 05:08:37;;;;;;;;;;;20.30;38.60;;;;;;6320917;28;20339;-40
2022/01/21 05:11:40;;;;;;;;;;;20.00;38.50;;;;;;6322536;27;19927;-41
2022/01/21 05:14:49;;;;;;;;;;;19.90;38.40;;;;;;6321851;27;19928;-43
2022/01/21 05:17:55;;;;;;;;;;;20.20;38.50;;;;;;6327703;28;21403;-45
2022/01/21 05:21:12;;;;;;;;;;;20.10;38.60;;;;;;6321619;28;20485;-41
2022/01/21 05:24:21;;;;;;;;;;;20.20;38.70;;;;;;6312788;28;19985;-41
2022/01/21 05:27:25;;;;;;;;;;;20.10;38.60;;;;;;6324568;28;20152;-41
2022/01/21 05:30:27;;;;;;;;;;;20.40;38.80;;;;;;6322837;28;19927;-41
2022/01/21 05:33:46;;;;;;;;;;;20.50;38.40;;;;;;6324119;28;20054;-39
2022/01/21 05:37:08;;;;;;;;;;;20.40;38.80;;;;;;6327592;28;20054;-43
2022/01/21 05:40:20;;;;;;;;;;;20.00;38.50;;;;;;6336273;27;20050;-41
2022/01/21 05:43:43;;;;;;;;;;;20.30;38.70;;;;;;6335248;28;20453;-43
2022/01/21 05:46:55;;;;;;;;;;;20.20;38.70;;;;;;6330603;27;20829;-43
2022/01/21 05:50:13;;;;;;;;;;;20.10;38.60;;;;;;6330375;28;19982;-41
2022/01/21 05:53:29;;;;;;;;;;;19.90;38.60;;;;;;6327851;27;19982;-43
2022/01/21 05:56:51;;;;;;;;;;;20.20;38.70;;;;;;6332736;28;20751;-41
2022/01/21 06:00:08;;;;;;;;;;;20.60;38.80;;;;;;6303519;27;19927;-42
2022/01/21 06:03:10;;;;;;;;;;;20.30;38.60;;;;;;6318509;28;19923;-44
2022/01/21 06:06:12;;;;;;;;;;;20.60;38.80;;;;;;6320407;28;19984;-44
2022/01/21 06:09:13;;;;;;;;;;;20.00;38.60;;;;;;6328792;27;19998;-46
2022/01/21 06:12:14;;;;;;;;;;;20.00;38.70;;;;;;6325982;28;19927;-43
2022/01/21 06:15:16;;;;;;;;;;;20.10;38.50;;;;;;6323589;27;19931;-41
2022/01/21 06:18:18;;;;;;;;;;;20.20;38.80;;;;;;6320452;28;20870;-43
2022/01/21 06:21:19;;;;;;;;;;;20.20;38.70;;;;;;6326562;28;20053;-42
2022/01/21 06:24:21;;;;;;;;;;;20.10;38.70;;;;;;6328558;28;19930;-41
2022/01/21 06:27:26;;;;;;;;;;;20.10;38.60;;;;;;6325827;27;20508;-41
2022/01/21 06:30:28;;;;;;;;;;;19.90;38.70;;;;;;6323242;28;19958;-42
2022/01/21 06:33:30;;;;;;;;;;;20.10;38.70;;;;;;6325000;27;21724;-45
2022/01/21 06:36:31;;;;;;;;;;;20.30;38.70;;;;;;6321133;28;21264;-41
2022/01/21 06:39:32;;;;;;;;;;;20.20;38.80;;;;;;6326112;28;20659;-41
2022/01/21 06:42:34;;;;;;;;;;;19.90;38.70;;;;;;6318125;28;19930;-44
2022/01/21 06:45:36;;;;;;;;;;;20.30;39.20;;;;;;6328003;28;20050;-41
2022/01/21 06:48:37;;;;;;;;;;;19.90;38.60;;;;;;6314662;28;19978;-43
2022/01/21 06:51:42;;;;;;;;;;;19.80;38.30;;;;;;6322321;27;20855;-43
2022/01/21 06:54:43;;;;;;;;;;;19.90;38.60;;;;;;6322091;28;20058;-39
2022/01/21 06:57:45;;;;;;;;;;;19.80;38.70;;;;;;6323121;27;20081;-40
2022/01/21 07:00:47;;;;;;;;;;;19.90;38.80;;;;;;6308584;27;20026;-43
2022/01/21 07:03:48;;;;;;;;;;;20.50;38.90;;;;;;6315315;27;19931;-41
2022/01/21 07:06:50;;;;;;;;;;;20.30;38.90;;;;;;6315368;27;19938;-47
2022/01/21 07:09:52;;;;;;;;;;;19.90;38.70;;;;;;6314984;28;20042;-44
2022/01/21 07:12:53;;;;;;;;;;;19.90;38.60;;;;;;6317807;27;20041;-42
2022/01/21 07:15:55;;;;;;;;;;;20.00;39.40;;;;;;6301654;28;20155;-41
2022/01/21 07:18:56;;;;;;;;;;;19.80;38.50;;;;;;6316201;28;19927;-44
2022/01/21 07:21:58;;;;;;;;;;;20.40;39.00;;;;;;6304323;27;19931;-43
2022/01/21 07:24:59;;;;;;;;;;;19.70;38.70;;;;;;6311591;28;20073;-43
2022/01/21 07:28:00;;;;;;;;;;;20.10;38.60;;;;;;6308759;28;20007;-43
2022/01/21 07:31:02;;;;;;;;;;;19.70;38.70;;;;;;6312118;28;20824;-43
2022/01/21 07:34:06;;;;;;;;;;;19.90;38.70;;;;;;6310349;27;20038;-44
2022/01/21 07:37:07;;;;;;;;;;;20.50;39.10;;;;;;6304092;27;22655;-44
2022/01/21 07:40:09;;;;;;;;;;;20.00;38.70;;;;;;6287503;28;19939;-44
2022/01/21 07:43:11;;;;;;;;;;;19.80;38.70;;;;;;6296284;28;21055;-39
2022/01/21 07:46:12;;;;;;;;;;;19.80;38.80;;;;;;6255664;27;19938;-42
2022/01/21 07:49:15;;;;;;;;;;;19.90;38.70;;;;;;6288641;28;19931;-43
2022/01/21 07:52:16;;;;;;;;;;;20.40;38.80;;;;;;6281756;27;21841;-40
2022/01/21 07:55:17;;;;;;;;;;;20.00;38.80;;;;;;6298439;27;19963;-41
2022/01/21 07:58:20;;;;;;;;;;;20.30;38.80;;;;;;6290353;27;19930;-43
2022/01/21 08:01:22;;;;;;;;;;;19.90;38.50;;;;;;6271086;27;19927;-42
2022/01/21 08:04:24;;;;;;;;;;;20.20;38.80;;;;;;6276938;27;20004;-46
2022/01/21 08:07:26;;;;;;;;;;;19.80;38.60;;;;;;6273262;27;19988;-44
2022/01/21 08:10:27;;;;;;;;;;;19.70;38.60;;;;;;6276716;27;20079;-44
2022/01/21 08:13:28;;;;;;;;;;;20.30;38.70;;;;;;6272989;27;19932;-43
2022/01/21 08:16:32;;;;;;;;;;;19.80;38.30;;;;;;6278549;27;19928;-43
2022/01/21 08:19:34;;;;;;;;;;;20.10;38.60;;;;;;6280040;27;20014;-44
2022/01/21 08:22:35;;;;;;;;;;;20.30;38.80;;;;;;6259930;27;19938;-46
2022/01/21 08:25:37;;;;;;;;;;;20.20;38.70;;;;;;6284104;27;20019;-46
2022/01/21 08:28:38;;;;;;;;;;;20.20;38.40;;;;;;6272775;27;19932;-43
2022/01/21 08:31:40;;;;;;;;;;;20.40;38.40;;;;;;6283477;27;20396;-42
2022/01/21 08:34:42;;;;;;;;;;;20.10;38.10;;;;;;6287967;27;19939;-40
2022/01/21 08:37:43;;;;;;;;;;;20.00;38.30;;;;;;6265288;27;20139;-41
2022/01/21 08:40:45;;;;;;;;;;;20.50;38.40;;;;;;6261461;27;20014;-42
2022/01/21 08:43:46;;;;;;;;;;;20.50;38.20;;;;;;6263138;27;19937;-40
2022/01/21 08:46:50;;;;;;;;;;;20.10;38.10;;;;;;6276941;27;19974;-43
2022/01/21 08:50:12;;;;;;;;;;;20.00;38.20;;;;;;6255020;27;19931;-41
2022/01/21 08:56:30;;;;;;;;;;;20.80;38.30;;;;;;6224180;27;20190;-41
2022/01/21 08:59:31;;;;;;;;;;;20.40;38.20;;;;;;6270130;27;20318;-44
2022/01/21 09:02:33;;;;;;;;;;;20.10;38.00;;;;;;6252768;27;19939;-48
2022/01/21 09:05:35;;;;;;;;;;;20.20;37.90;;;;;;6287639;27;21051;-44
2022/01/21 09:08:38;;;;;;;;;;;20.60;38.20;;;;;;6285210;27;21662;-42
2022/01/21 09:11:39;;;;;;;;;;;20.60;38.00;;;;;;6288468;27;20025;-48
2022/01/21 09:14:40;;;;;;;;;;;20.20;37.80;;;;;;6287465;27;20046;-42
2022/01/21 09:17:43;;;;;;;;;;;20.20;37.90;;;;;;6286312;27;19936;-46
2022/01/21 09:20:44;;;;;;;;;;;20.70;38.00;;;;;;6287914;27;19939;-40
2022/01/21 09:23:48;;;;;;;;;;;20.40;37.80;;;;;;6260078;27;19966;-44
2022/01/21 09:26:50;;;;;;;;;;;20.50;37.80;;;;;;6269114;27;19935;-42
2022/01/21 09:29:51;;;;;;;;;;;20.40;37.90;;;;;;6291615;27;19938;-41
2022/01/21 09:32:53;;;;;;;;;;;20.80;38.00;;;;;;6284201;27;19932;-41
2022/01/21 09:35:55;;;;;;;;;;;20.70;37.90;;;;;;6264071;27;20046;-46
2022/01/21 09:38:56;;;;;;;;;;;20.80;38.00;;;;;;6279423;27;20054;-44
2022/01/21 09:41:59;;;;;;;;;;;20.80;38.00;;;;;;6281217;27;20725;-44
2022/01/21 09:45:02;;;;;;;;;;;20.40;37.70;;;;;;6282013;27;20053;-43
2022/01/21 09:48:06;;;;;;;;;;;20.80;38.00;;;;;;6249113;27;20034;-45
2022/01/21 09:51:07;;;;;;;;;;;20.90;37.80;;;;;;6268214;27;20733;-43
2022/01/21 09:54:09;;;;;;;;;;;20.80;37.90;;;;;;6289150;27;20031;-44
2022/01/21 09:57:10;;;;;;;;;;;20.50;37.80;;;;;;6285349;27;19932;-40
2022/01/21 10:00:14;;;;;;;;;;;20.60;37.60;;;;;;6286323;27;20050;-44
2022/01/21 10:03:15;;;;;;;;;;;20.50;37.50;;;;;;6276436;27;20857;-44
2022/01/21 10:06:17;;;;;;;;;;;20.40;37.50;;;;;;6287643;27;20921;-40
2022/01/21 10:09:20;;;;;;;;;;;20.60;37.50;;;;;;6294473;27;20379;-43
2022/01/21 10:12:23;;;;;;;;;;;20.80;37.50;;;;;;6276543;27;19975;-46
2022/01/21 10:15:24;;;;;;;;;;;20.90;37.70;;;;;;6295729;27;21270;-43
2022/01/21 10:18:26;;;;;;;;;;;20.90;37.50;;;;;;6286662;27;20039;-43
2022/01/21 10:21:28;;;;;;;;;;;20.60;37.40;;;;;;6284628;27;20029;-46
2022/01/21 10:24:30;;;;;;;;;;;21.10;37.60;;;;;;6288408;27;19938;-42
2022/01/21 10:27:33;;;;;;;;;;;20.70;37.30;;;;;;6266438;27;19932;-43
2022/01/21 10:30:34;;;;;;;;;;;20.70;37.10;;;;;;6280118;27;20040;-41
2022/01/21 10:33:39;;;;;;;;;;;20.60;37.00;;;;;;6280526;27;19932;-45
2022/01/21 10:36:44;;;;;;;;;;;20.70;37.60;;;;;;6277915;27;19932;-42
2022/01/21 10:39:53;;;;;;;;;;;21.10;37.20;;;;;;6267614;28;20930;-39
2022/01/21 10:43:09;;;;;;;;;;;21.00;37.10;;;;;;6287867;28;19932;-44
2022/01/21 10:46:13;;;;;;;;;;;20.40;36.70;;;;;;6268401;27;21826;-40
2022/01/21 10:49:16;;;;;;;;;;;21.10;37.10;;;;;;6288079;27;19931;-46
2022/01/21 10:52:29;;;;;;;;;;;21.00;37.10;;;;;;6284497;27;20046;-46
2022/01/21 10:55:32;;;;;;;;;;;21.00;37.00;;;;;;6276906;27;19938;-45
2022/01/21 10:58:37;;;;;;;;;;;20.80;36.90;;;;;;6279930;27;19932;-45
2022/01/21 11:01:38;;;;;;;;;;;21.10;37.00;;;;;;6277946;27;21608;-42
2022/01/21 11:04:41;;;;;;;;;;;21.30;37.20;;;;;;6263043;28;19939;-42
2022/01/21 11:07:47;;;;;;;;;;;21.00;37.00;;;;;;6278063;27;19935;-44
2022/01/21 11:10:49;;;;;;;;;;;20.70;36.80;;;;;;6261323;28;20848;-44
2022/01/21 11:13:51;;;;;;;;;;;21.00;37.00;;;;;;6291855;27;21024;-44
2022/01/21 11:16:54;;;;;;;;;;;20.70;36.90;;;;;;6283016;27;20805;-40
2022/01/21 11:20:18;;;;;;;;;;;21.10;37.20;;;;;;6264540;28;21993;-41
2022/01/21 11:23:21;;;;;;;;;;;21.20;37.10;;;;;;6283616;28;19932;-41
2022/01/21 11:26:25;;;;;;;;;;;20.90;37.00;;;;;;6299365;28;20046;-43
2022/01/21 11:29:26;;;;;;;;;;;20.90;36.80;;;;;;6302486;27;19971;-41
2022/01/21 11:32:28;;;;;;;;;;;21.30;37.00;;;;;;6299193;27;19991;-46
2022/01/21 11:35:31;;;;;;;;;;;21.50;37.10;;;;;;6291569;27;19935;-41
2022/01/21 11:38:34;;;;;;;;;;;20.80;36.60;;;;;;6299186;28;19932;-41
2022/01/21 11:41:35;;;;;;;;;;;21.20;36.80;;;;;;6282768;28;20108;-42
2022/01/21 11:44:40;;;;;;;;;;;21.00;36.80;;;;;;6301367;28;22137;-41
2022/01/21 11:48:00;;;;;;;;;;;21.00;36.70;;;;;;6303424;27;19938;-44
2022/01/21 11:51:17;;;;;;;;;;;21.40;36.90;;;;;;6301905;28;19939;-42
2022/01/21 11:54:24;;;;;;;;;;;21.00;36.60;;;;;;6278975;27;19931;-46
2022/01/21 11:57:28;;;;;;;;;;;21.40;36.60;;;;;;6297459;28;20049;-40
2022/01/21 12:00:31;;;;;;;;;;;21.40;36.60;;;;;;6289155;27;19943;-45
2022/01/21 12:03:52;;;;;;;;;;;21.50;36.80;;;;;;6306970;27;19937;-43
2022/01/21 12:06:53;;;;;;;;;;;21.00;36.50;;;;;;6311306;27;20045;-44
2022/01/21 12:09:55;;;;;;;;;;;21.10;36.60;;;;;;6306919;28;19937;-46
2022/01/21 12:13:00;;;;;;;;;;;21.10;36.50;;;;;;6298136;27;19982;-44
2022/01/21 12:16:20;;;;;;;;;;;21.40;36.60;;;;;;6274564;28;20381;-42
2022/01/21 12:19:27;;;;;;;;;;;21.40;36.80;;;;;;6313613;27;20850;-44
2022/01/21 12:22:29;;;;;;;;;;;21.50;36.90;;;;;;6310461;28;19970;-45
2022/01/21 12:25:31;;;;;;;;;;;21.20;36.90;;;;;;6314426;27;19980;-40
2022/01/21 12:28:32;;;;;;;;;;;21.40;36.90;;;;;;6317603;28;20473;-41
2022/01/21 12:31:53;;;;;;;;;;;21.70;37.10;;;;;;6310707;27;19931;-43
2022/01/21 12:35:17;;;;;;;;;;;21.50;36.90;;;;;;6308618;27;19931;-44
2022/01/21 12:41:37;;;;;;;;;;;20.90;36.60;;;;;;6281072;27;19989;-46
2022/01/21 12:44:39;;;;;;;;;;;21.10;36.70;;;;;;6288744;27;19967;-46
2022/01/21 12:47:44;;;;;;;;;;;21.20;36.90;;;;;;6295183;27;19931;-50
2022/01/21 12:50:57;;;;;;;;;;;20.90;36.50;;;;;;6283273;27;19938;-50
2022/01/21 12:57:18;;;;;;;;;;;21.10;36.70;;;;;;6258827;28;19982;-41
2022/01/21 13:00:24;;;;;;;;;;;21.40;36.80;;;;;;6277886;27;19931;-43
2022/01/21 13:03:27;;;;;;;;;;;21.30;36.70;;;;;;6281914;27;19935;-45
2022/01/21 13:06:33;;;;;;;;;;;21.20;36.60;;;;;;6242764;28;22039;-42
2022/01/21 13:09:49;;;;;;;;;;;21.10;36.50;;;;;;6285535;27;19994;-45
2022/01/21 13:13:12;;;;;;;;;;;21.50;36.60;;;;;;6268228;27;19979;-45
2022/01/21 13:16:22;;;;;;;;;;;21.20;36.50;;;;;;6282243;27;21029;-49
2022/01/21 13:19:24;;;;;;;;;;;21.60;36.60;;;;;;6275737;27;20020;-46
2022/01/21 13:22:27;;;;;;;;;;;21.80;36.90;;;;;;6285920;27;19935;-44
2022/01/21 13:25:31;;;;;;;;;;;21.60;36.60;;;;;;6259483;27;20038;-41
2022/01/21 13:28:33;;;;;;;;;;;21.10;36.50;;;;;;6277499;27;19936;-44
2022/01/21 13:31:35;;;;;;;;;;;21.40;36.60;;;;;;6268654;27;19938;-41
2022/01/21 13:34:39;;;;;;;;;;;21.20;36.30;;;;;;6251750;27;20957;-48
2022/01/21 13:37:42;;;;;;;;;;;21.60;36.50;;;;;;6270064;27;21368;-42
2022/01/21 13:40:45;;;;;;;;;;;22.00;36.70;;;;;;6286392;27;20074;-43
2022/01/21 13:43:49;;;;;;;;;;;21.50;36.50;;;;;;6264839;27;19939;-48
2022/01/21 13:46:50;;;;;;;;;;;21.70;36.70;;;;;;6288616;27;21939;-43
2022/01/21 13:49:52;;;;;;;;;;;21.40;36.40;;;;;;6289295;27;19931;-46
2022/01/21 13:52:54;;;;;;;;;;;21.70;36.40;;;;;;6284271;27;19952;-43
2022/01/21 13:55:57;;;;;;;;;;;21.70;36.50;;;;;;6279953;27;20829;-47
2022/01/21 13:59:00;;;;;;;;;;;22.10;36.60;;;;;;6288326;27;20323;-46
2022/01/21 14:02:06;;;;;;;;;;;21.70;36.50;;;;;;6278519;27;19932;-40
2022/01/21 14:05:08;;;;;;;;;;;21.40;36.20;;;;;;6270706;27;20715;-45
2022/01/21 14:08:10;;;;;;;;;;;21.90;36.60;;;;;;6284158;27;19963;-43
2022/01/21 14:11:13;;;;;;;;;;;21.20;36.20;;;;;;6292966;27;19932;-40
2022/01/21 14:14:16;;;;;;;;;;;21.50;36.40;;;;;;6272311;27;19932;-43
2022/01/21 14:17:24;;;;;;;;;;;21.40;36.20;;;;;;6279451;27;20842;-45
2022/01/21 14:20:25;;;;;;;;;;;21.30;36.20;;;;;;6266123;27;19930;-47
2022/01/21 14:23:26;;;;;;;;;;;21.70;36.40;;;;;;6290007;27;19931;-47
2022/01/21 14:26:39;;;;;;;;;;;21.40;36.30;;;;;;6270828;27;19936;-44
2022/01/21 14:29:42;;;;;;;;;;;21.70;36.20;;;;;;6260591;28;21743;-45
2022/01/21 14:32:48;;;;;;;;;;;21.70;36.30;;;;;;6283136;28;20804;-44
2022/01/21 14:35:49;;;;;;;;;;;21.80;36.30;;;;;;6252436;27;21364;-45
2022/01/21 14:38:53;;;;;;;;;;;22.10;36.60;;;;;;6274067;27;19931;-50
2022/01/21 14:41:56;;;;;;;;;;;21.80;36.30;;;;;;6260347;27;19956;-45
2022/01/21 14:44:58;;;;;;;;;;;21.40;36.20;;;;;;6285346;27;19963;-50
2022/01/21 14:48:11;;;;;;;;;;;21.60;36.40;;;;;;6284772;27;21855;-49
2022/01/21 14:51:17;;;;;;;;;;;21.90;36.40;;;;;;6265656;27;20743;-44
2022/01/21 14:54:20;;;;;;;;;;;21.90;36.60;;;;;;6275083;27;21929;-42
2022/01/21 14:57:29;;;;;;;;;;;21.80;36.50;;;;;;6278786;27;21730;-47
2022/01/21 15:00:32;;;;;;;;;;;21.70;37.10;;;;;;6266517;27;20069;-44
2022/01/21 15:03:36;;;;;;;;;;;21.20;36.30;;;;;;6259465;27;20813;-43
2022/01/21 15:06:39;;;;;;;;;;;21.30;36.40;;;;;;6276801;27;20906;-43
2022/01/21 15:09:47;;;;;;;;;;;21.50;36.50;;;;;;6282253;27;20874;-45
2022/01/21 15:16:06;;;;;;;;;;;21.50;36.60;;;;;;6265602;27;20065;-44
2022/01/21 15:19:08;;;;;;;;;;;21.10;36.30;;;;;;6260428;27;19939;-45
2022/01/21 15:22:11;;;;;;;;;;;21.50;36.60;;;;;;6266430;27;20000;-42
2022/01/21 15:25:12;;;;;;;;;;;21.20;36.30;;;;;;6273181;27;20690;-43
2022/01/21 15:28:14;;;;;;;;;;;21.50;36.50;;;;;;6266582;27;20770;-42
2022/01/21 15:31:17;;;;;;;;;;;21.40;36.40;;;;;;6276913;27;21424;-43
2022/01/21 15:34:19;;;;;;;;;;;21.30;37.00;;;;;;6285395;27;21377;-44
2022/01/21 15:37:20;;;;;;;;;;;21.30;36.30;;;;;;6280657;27;19931;-44
2022/01/21 15:40:22;;;;;;;;;;;21.90;36.70;;;;;;6285696;27;19932;-43
2022/01/21 15:46:54;;;;;;;;;;;21.60;36.40;;;;;;6298289;27;19931;-45
2022/01/21 15:49:56;;;;;;;;;;;21.70;36.30;;;;;;6289751;27;19932;-43
2022/01/21 15:53:03;;;;;;;;;;;21.40;36.30;;;;;;6291780;27;19931;-43
2022/01/21 15:56:05;;;;;;;;;;;21.80;36.50;;;;;;6288321;27;20097;-45
2022/01/21 15:59:07;;;;;;;;;;;21.80;36.40;;;;;;6291722;27;19967;-46
2022/01/21 16:02:09;;;;;;;;;;;21.50;36.20;;;;;;6263779;27;19932;-43
2022/01/21 16:05:10;;;;;;;;;;;21.40;36.20;;;;;;6271566;27;19935;-46
2022/01/21 16:08:11;;;;;;;;;;;21.60;36.30;;;;;;6287289;27;19934;-46
2022/01/21 16:11:13;;;;;;;;;;;21.50;36.20;;;;;;6290016;27;19936;-45
2022/01/21 16:14:15;;;;;;;;;;;21.90;36.30;;;;;;6286338;27;19974;-45
2022/01/21 16:17:17;;;;;;;;;;;21.40;36.00;;;;;;6290505;27;20038;-41
2022/01/21 16:20:18;;;;;;;;;;;21.50;36.00;;;;;;6293719;27;19981;-44
2022/01/21 16:23:20;;;;;;;;;;;21.90;36.20;;;;;;6278090;27;19931;-43
2022/01/21 16:26:28;;;;;;;;;;;21.70;36.10;;;;;;6289056;27;19931;-44
2022/01/21 16:29:32;;;;;;;;;;;21.50;36.10;;;;;;6293765;27;19986;-44
2022/01/21 16:32:33;;;;;;;;;;;21.80;36.10;;;;;;6301573;27;19932;-41
2022/01/21 16:35:35;;;;;;;;;;;21.50;35.90;;;;;;6299852;27;19931;-44
2022/01/21 16:38:36;;;;;;;;;;;21.90;36.30;;;;;;6294277;27;19931;-42
2022/01/21 16:41:38;;;;;;;;;;;21.60;36.10;;;;;;6301416;27;19939;-45
2022/01/21 16:44:39;;;;;;;;;;;21.70;36.00;;;;;;6300886;27;19931;-46
2022/01/21 16:47:43;;;;;;;;;;;21.80;36.10;;;;;;6303559;27;20008;-47
2022/01/21 16:50:44;;;;;;;;;;;22.00;36.20;;;;;;6280146;27;19931;-45
2022/01/21 16:53:46;;;;;;;;;;;22.10;36.50;;;;;;6297818;27;20397;-44
2022/01/21 16:56:56;;;;;;;;;;;21.70;36.10;;;;;;6294504;27;19931;-42
2022/01/21 16:59:58;;;;;;;;;;;21.50;36.10;;;;;;6285799;27;21909;-45
2022/01/21 17:03:01;;;;;;;;;;;21.40;36.00;;;;;;6295350;27;20161;-44
2022/01/21 17:06:03;;;;;;;;;;;21.80;36.10;;;;;;6307599;27;19939;-46
2022/01/21 17:09:04;;;;;;;;;;;21.40;36.20;;;;;;6305469;27;19939;-47
2022/01/21 17:12:06;;;;;;;;;;;21.40;36.10;;;;;;6312682;27;20771;-46
2022/01/21 17:15:09;;;;;;;;;;;21.70;36.30;;;;;;6316066;27;19938;-44
2022/01/21 17:18:10;;;;;;;;;;;21.40;36.30;;;;;;6319050;27;20028;-47
2022/01/21 17:21:12;;;;;;;;;;;21.80;36.40;;;;;;6321393;27;19931;-48
2022/01/21 17:24:14;;;;;;;;;;;21.80;36.50;;;;;;6318359;27;19974;-47
2022/01/21 17:27:17;;;;;;;;;;;21.60;36.50;;;;;;6317802;27;20717;-45
2022/01/21 17:30:20;;;;;;;;;;;21.40;36.40;;;;;;6295292;27;20456;-43
2022/01/21 17:33:22;;;;;;;;;;;21.30;36.40;;;;;;6302758;27;20554;-42
2022/01/21 17:36:23;;;;;;;;;;;21.50;36.50;;;;;;6319300;27;19931;-46
2022/01/21 17:39:25;;;;;;;;;;;21.20;36.40;;;;;;6322222;27;20857;-46
2022/01/21 17:42:26;;;;;;;;;;;21.20;36.40;;;;;;6300110;27;19940;-42
2022/01/21 17:45:28;;;;;;;;;;;21.40;36.50;;;;;;6275632;27;19936;-42
2022/01/21 17:48:35;;;;;;;;;;;21.00;36.40;;;;;;6300055;27;20465;-45
2022/01/21 17:51:37;;;;;;;;;;;21.60;36.60;;;;;;6302246;27;19996;-41
2022/01/21 17:54:38;;;;;;;;;;;21.40;36.60;;;;;;6301495;27;19931;-40
2022/01/21 17:57:40;;;;;;;;;;;21.50;36.80;;;;;;6304243;28;19931;-43
2022/01/21 18:00:42;;;;;;;;;;;21.30;36.70;;;;;;6293873;27;19975;-44
2022/01/21 18:03:43;;;;;;;;;;;21.30;36.60;;;;;;6320417;27;20894;-42
2022/01/21 18:06:45;;;;;;;;;;;21.20;36.60;;;;;;6310958;27;20008;-42
2022/01/21 18:09:47;;;;;;;;;;;21.20;36.70;;;;;;6311865;27;19958;-42
2022/01/21 18:12:48;;;;;;;;;;;21.10;36.60;;;;;;6315944;27;19932;-43
2022/01/21 18:15:51;;;;;;;;;;;21.30;36.80;;;;;;6307043;27;20138;-43
2022/01/21 18:18:53;;;;;;;;;;;21.00;36.60;;;;;;6294969;27;19931;-42
2022/01/21 18:21:54;;;;;;;;;;;21.20;36.70;;;;;;6308134;27;20226;-43
2022/01/21 18:24:56;;;;;;;;;;;21.40;36.90;;;;;;6310455;27;19972;-43
2022/01/21 18:27:57;;;;;;;;;;;21.20;36.90;;;;;;6311938;28;20365;-42
2022/01/21 18:30:59;;;;;;;;;;;21.00;37.10;;;;;;6313181;27;20257;-43
2022/01/21 18:34:02;;;;;;;;;;;21.10;36.90;;;;;;6312529;28;19927;-42
2022/01/21 18:37:04;;;;;;;;;;;20.90;36.60;;;;;;6306924;28;20204;-43
2022/01/21 18:40:06;;;;;;;;;;;20.90;36.60;;;;;;6307953;28;20585;-42
2022/01/21 18:43:08;;;;;;;;;;;21.20;36.80;;;;;;6305172;28;20060;-42
2022/01/21 18:46:13;;;;;;;;;;;21.20;37.10;;;;;;6317330;27;20073;-42
2022/01/21 18:49:15;;;;;;;;;;;21.10;36.90;;;;;;6316140;28;20658;-42